Time;durP1;ratioP1;P1;durP2;ratioP2;P2;SDS_P1;SDS_P2;PMS_P1;PMS_P2;Temp;Humidity;BMP_temperature;BMP_pressure;BME280_temperature;BME280_humidity;BME280_pressure;Samples;Min_cycle;Max_cycle;Signal;HPM_P1;HPM_P2
2022/12/27 00:02:11;;;;;;;11.45;2.15;;;2.40;95.30;;;;;;5030892;28;20469;-72
2022/12/27 00:04:37;;;;;;;8.52;1.63;;;2.50;95.10;;;;;;5026107;28;20074;-71
2022/12/27 00:07:03;;;;;;;7.05;2.00;;;2.40;95.10;;;;;;5029336;28;20044;-71
2022/12/27 00:09:29;;;;;;;6.65;1.88;;;2.50;95.10;;;;;;5029037;28;20040;-72
2022/12/27 00:11:54;;;;;;;6.03;1.75;;;2.50;95.00;;;;;;5030431;28;20029;-71
2022/12/27 00:14:19;;;;;;;9.93;2.10;;;2.50;94.90;;;;;;5030969;28;20065;-72
2022/12/27 00:16:45;;;;;;;7.95;2.20;;;2.30;95.30;;;;;;5029697;28;20090;-71
2022/12/27 00:19:11;;;;;;;8.18;1.80;;;2.40;95.20;;;;;;5025822;28;20098;-71
2022/12/27 00:21:36;;;;;;;10.30;2.22;;;2.30;95.00;;;;;;5029030;28;20401;-71
2022/12/27 00:24:02;;;;;;;6.20;1.90;;;2.30;95.10;;;;;;5031321;28;20500;-71
2022/12/27 00:26:30;;;;;;;9.90;2.05;;;2.30;95.20;;;;;;5030186;28;20025;-71
2022/12/27 00:28:56;;;;;;;7.95;1.98;;;2.30;95.10;;;;;;5030481;28;20045;-71
2022/12/27 00:31:24;;;;;;;10.25;1.95;;;2.30;95.00;;;;;;5028038;28;20025;-71
2022/12/27 00:33:52;;;;;;;11.98;2.22;;;2.30;95.20;;;;;;5023548;28;20061;-71
2022/12/27 00:36:21;;;;;;;10.15;1.98;;;2.30;95.10;;;;;;5027401;28;20452;-73
2022/12/27 00:38:47;;;;;;;12.27;2.50;;;2.40;94.80;;;;;;5030994;28;20049;-73
2022/12/27 00:41:13;;;;;;;8.70;1.90;;;2.30;95.00;;;;;;5030442;28;20044;-71
2022/12/27 00:43:40;;;;;;;10.68;1.58;;;2.30;94.90;;;;;;5024794;28;20147;-70
2022/12/27 00:46:06;;;;;;;11.13;1.95;;;2.30;94.90;;;;;;5019816;28;20466;-71
2022/12/27 00:48:32;;;;;;;8.48;1.60;;;2.20;94.90;;;;;;5025439;28;20030;-70
2022/12/27 00:51:09;;;;;;;11.07;2.03;;;2.20;95.00;;;;;;5028041;28;20105;-72
2022/12/27 00:53:35;;;;;;;7.30;1.70;;;2.10;95.10;;;;;;5021150;28;20037;-70
2022/12/27 00:56:08;;;;;;;9.32;2.00;;;2.20;95.10;;;;;;5029681;28;20030;-72
2022/12/27 00:58:34;;;;;;;12.57;1.90;;;2.30;94.80;;;;;;5025699;28;20029;-74
2022/12/27 01:01:28;;;;;;;11.40;2.30;;;2.20;95.00;;;;;;5026871;28;20044;-71
2022/12/27 01:03:54;;;;;;;8.73;1.58;;;2.30;94.90;;;;;;5024097;28;20483;-72
2022/12/27 01:06:23;;;;;;;10.27;2.40;;;2.20;94.70;;;;;;5025920;28;20365;-72
2022/12/27 01:08:49;;;;;;;7.88;1.45;;;2.20;94.90;;;;;;5029154;28;20108;-72
2022/12/27 01:11:16;;;;;;;8.23;2.17;;;2.20;94.90;;;;;;5028461;28;20037;-71
2022/12/27 01:13:43;;;;;;;11.43;2.45;;;2.10;95.00;;;;;;5018797;28;20034;-71
2022/12/27 01:16:16;;;;;;;7.35;1.75;;;2.20;95.10;;;;;;5027356;28;20041;-72
2022/12/27 01:18:42;;;;;;;9.73;1.50;;;2.20;95.30;;;;;;5023095;28;20490;-71
2022/12/27 01:21:09;;;;;;;10.38;2.30;;;2.10;95.00;;;;;;5028686;28;20034;-72
2022/12/27 01:23:36;;;;;;;10.57;1.92;;;2.10;95.00;;;;;;5032943;28;20097;-71
2022/12/27 01:26:03;;;;;;;7.05;2.00;;;2.20;95.10;;;;;;5032983;28;20044;-70
2022/12/27 01:28:29;;;;;;;5.95;2.17;;;2.20;95.00;;;;;;5027316;28;20030;-71
2022/12/27 01:30:55;;;;;;;9.38;2.17;;;2.20;94.90;;;;;;5027659;28;20067;-72
2022/12/27 01:33:20;;;;;;;8.38;2.05;;;2.20;94.90;;;;;;5032744;28;20042;-71
2022/12/27 01:35:46;;;;;;;8.95;2.10;;;2.20;95.00;;;;;;5031076;28;20033;-73
2022/12/27 01:38:12;;;;;;;7.10;2.35;;;2.10;94.90;;;;;;5034383;28;20029;-71
2022/12/27 01:40:37;;;;;;;7.85;1.80;;;2.20;95.10;;;;;;5024312;28;20029;-71
2022/12/27 01:43:03;;;;;;;7.22;1.95;;;2.10;95.10;;;;;;5028477;28;20469;-72
2022/12/27 01:45:33;;;;;;;8.02;2.17;;;2.20;95.10;;;;;;5028274;28;20029;-71
2022/12/27 01:48:08;;;;;;;10.43;1.83;;;2.10;94.80;;;;;;5030600;28;20068;-72
2022/12/27 01:50:59;;;;;;;12.30;2.40;;;2.10;95.20;;;;;;5031724;28;20470;-71
2022/12/27 01:53:28;;;;;;;;;;;2.20;95.10;;;;;;5031512;28;20366;-71
2022/12/27 01:56:11;;;;;;;9.15;1.88;;;2.20;95.20;;;;;;5034207;28;19947;-70
2022/12/27 01:58:48;;;;;;;8.77;2.10;;;2.30;95.10;;;;;;5033683;28;20033;-71
2022/12/27 02:01:25;;;;;;;6.57;1.80;;;2.40;94.80;;;;;;5033295;28;20373;-71
2022/12/27 02:03:56;;;;;;;7.80;1.80;;;2.40;94.70;;;;;;5031757;28;20034;-71
2022/12/27 02:06:23;;;;;;;12.95;2.30;;;2.50;94.80;;;;;;5028174;28;20029;-73
2022/12/27 02:09:15;;;;;;;5.22;1.75;;;2.50;94.70;;;;;;5032701;28;20393;-71
2022/12/27 02:11:49;;;;;;;7.50;2.47;;;2.60;94.40;;;;;;5030419;28;20485;-71
2022/12/27 02:14:23;;;;;;;8.65;2.20;;;2.50;94.40;;;;;;5024227;28;20503;-71
2022/12/27 02:16:50;;;;;;;12.88;2.92;;;2.50;94.40;;;;;;5026118;28;20029;-74
2022/12/27 02:19:39;;;;;;;13.80;2.53;;;2.40;94.50;;;;;;5029957;28;20029;-71
2022/12/27 02:25:45;;;;;;;6.10;1.88;;;2.30;94.80;;;;;;5032205;28;20740;-71
2022/12/27 02:28:38;;;;;;;5.90;1.88;;;2.40;94.90;;;;;;5028017;28;20463;-71
2022/12/27 02:31:10;;;;;;;7.80;1.40;;;2.40;94.80;;;;;;5027820;28;20034;-71
2022/12/27 02:33:42;;;;;;;7.35;2.10;;;2.30;95.00;;;;;;5023524;28;20037;-72
2022/12/27 02:36:13;;;;;;;15.82;2.50;;;2.30;94.90;;;;;;5024726;28;20038;-71
2022/12/27 02:38:43;;;;;;;11.20;2.22;;;2.20;95.10;;;;;;5031730;28;20037;-71
2022/12/27 02:53:04;;;;;;;7.88;2.42;;;2.10;95.30;;;;;;5027510;28;20041;-71
2022/12/27 02:59:22;;;;;;;7.22;2.35;;;2.10;95.40;;;;;;5024606;28;20036;-71
2022/12/27 03:05:20;;;;;;;6.63;2.33;;;2.10;95.50;;;;;;5027835;28;20044;-71
2022/12/27 03:07:57;;;;;;;8.98;2.13;;;2.10;95.50;;;;;;5021346;28;20091;-76
2022/12/27 03:16:36;;;;;;;15.48;3.17;;;2.30;95.50;;;;;;5025045;28;20080;-72
2022/12/27 03:19:08;;;;;;;14.90;2.75;;;2.30;95.50;;;;;;5021649;28;20116;-71
2022/12/27 03:27:20;;;;;;;8.98;2.78;;;2.20;95.30;;;;;;5020246;28;20061;-72
2022/12/27 03:35:30;;;;;;;11.68;2.85;;;2.10;95.60;;;;;;5024021;28;20045;-72
2022/12/27 03:38:03;;;;;;;11.32;2.75;;;2.10;95.60;;;;;;5039186;28;20033;-72
2022/12/27 03:43:31;;;;;;;9.55;2.42;;;2.10;95.70;;;;;;5020830;28;20032;-72
2022/12/27 03:46:32;;;;;;;9.07;3.50;;;2.10;95.80;;;;;;5024210;28;20088;-72
2022/12/27 03:49:34;;;;;;;12.00;2.53;;;2.20;95.70;;;;;;5029494;28;20486;-72
2022/12/27 03:52:09;;;;;;;5.60;2.85;;;2.20;95.70;;;;;;5023871;28;20429;-72
2022/12/27 03:54:38;;;;;;;11.85;3.60;;;2.20;95.60;;;;;;5031546;28;20021;-73
2022/12/27 03:57:11;;;;;;;7.38;2.47;;;2.30;95.60;;;;;;5032103;28;20116;-73
2022/12/27 03:59:37;;;;;;;7.03;3.63;;;2.30;95.40;;;;;;5025946;28;20723;-73
2022/12/27 04:02:04;;;;;;;5.72;2.80;;;2.40;95.50;;;;;;5028529;28;20124;-73
2022/12/27 04:04:30;;;;;;;11.05;3.13;;;2.50;95.30;;;;;;5019655;28;20358;-72
2022/12/27 04:06:55;;;;;;;9.65;3.53;;;2.50;95.30;;;;;;5027895;28;20048;-72
2022/12/27 04:36:44;;;;;;;9.25;3.28;;;2.60;95.80;;;;;;5027945;28;20036;-72
2022/12/27 04:39:10;;;;;;;12.93;3.70;;;2.60;96.10;;;;;;5028856;28;20030;-73
2022/12/27 04:55:20;;;;;;;10.75;3.70;;;2.60;96.60;;;;;;5026397;28;20603;-74
2022/12/27 04:57:46;;;;;;;12.18;3.95;;;2.60;96.70;;;;;;5034580;28;20034;-72
2022/12/27 05:03:02;;;;;;;8.80;4.00;;;2.60;96.80;;;;;;5027835;28;20120;-74
2022/12/27 05:05:28;;;;;;;11.13;3.78;;;2.60;96.90;;;;;;5028530;28;20056;-72
2022/12/27 05:16:08;;;;;;;17.52;4.75;;;2.60;96.80;;;;;;5028372;28;20040;-72
2022/12/27 05:18:34;;;;;;;10.27;4.25;;;2.60;96.60;;;;;;5032037;28;20033;-73
2022/12/27 05:21:04;;;;;;;12.98;4.35;;;2.60;96.60;;;;;;5032809;28;20367;-73
2022/12/27 05:26:22;;;;;;;9.35;5.03;;;2.60;96.80;;;;;;5031317;28;20049;-72
2022/12/27 05:28:49;;;;;;;9.25;4.47;;;2.70;96.70;;;;;;5031562;28;20033;-68
2022/12/27 05:31:15;;;;;;;9.05;4.57;;;2.60;96.70;;;;;;5028446;28;20116;-68
2022/12/27 05:33:40;;;;;;;15.52;4.60;;;2.60;97.00;;;;;;5030157;28;20104;-70
2022/12/27 05:36:07;;;;;;;14.98;4.63;;;2.60;97.10;;;;;;5026364;28;20049;-69
2022/12/27 05:38:32;;;;;;;12.68;4.78;;;2.60;97.10;;;;;;5028404;28;20034;-67
2022/12/27 05:41:01;;;;;;;13.18;4.72;;;2.80;96.90;;;;;;5029531;28;20048;-68
2022/12/27 05:43:27;;;;;;;14.95;4.45;;;2.90;96.50;;;;;;5033664;28;20099;-69
2022/12/27 05:45:54;;;;;;;9.88;4.78;;;2.90;96.60;;;;;;5022110;28;20080;-69
2022/12/27 05:48:20;;;;;;;17.77;5.05;;;3.00;96.10;;;;;;5028419;28;20042;-67
2022/12/27 05:50:46;;;;;;;9.82;4.03;;;3.00;96.20;;;;;;5030295;28;20049;-69
2022/12/27 05:53:11;;;;;;;15.60;5.25;;;3.10;96.00;;;;;;5026987;28;20069;-68
2022/12/27 05:55:37;;;;;;;11.73;5.15;;;3.10;95.90;;;;;;5029969;28;20022;-68
2022/12/27 05:58:02;;;;;;;10.65;5.03;;;3.10;95.80;;;;;;5030811;28;20056;-68
2022/12/27 06:00:28;;;;;;;10.70;4.30;;;3.10;95.70;;;;;;5025043;28;20022;-68
2022/12/27 06:02:53;;;;;;;10.77;4.63;;;3.30;95.40;;;;;;5034179;28;20079;-69
2022/12/27 06:05:19;;;;;;;10.15;4.28;;;3.30;95.10;;;;;;5030060;28;20432;-68
2022/12/27 06:07:44;;;;;;;13.13;4.90;;;3.40;95.10;;;;;;5032910;28;20029;-69
2022/12/27 06:10:10;;;;;;;7.68;4.15;;;3.40;95.20;;;;;;5030783;28;20029;-68
2022/12/27 06:12:36;;;;;;;10.27;4.43;;;3.40;95.40;;;;;;5021874;28;20061;-68
2022/12/27 06:15:03;;;;;;;10.63;3.85;;;3.30;95.50;;;;;;5028947;28;20040;-69
2022/12/27 06:17:28;;;;;;;9.45;4.22;;;3.40;95.30;;;;;;5032572;28;20120;-68
2022/12/27 06:19:54;;;;;;;10.13;4.60;;;3.40;95.40;;;;;;5031220;28;20573;-68
2022/12/27 06:22:19;;;;;;;10.75;4.68;;;3.40;95.50;;;;;;5030254;28;20098;-69
2022/12/27 06:24:45;;;;;;;14.68;4.45;;;3.40;95.40;;;;;;5030797;28;20064;-68
2022/12/27 06:27:10;;;;;;;9.32;4.40;;;3.40;95.40;;;;;;5029894;28;20493;-69
2022/12/27 06:29:36;;;;;;;11.40;4.60;;;3.30;95.60;;;;;;5027654;28;20108;-68
2022/12/27 06:32:02;;;;;;;12.82;4.68;;;3.40;95.50;;;;;;5032537;28;20037;-68
2022/12/27 06:34:27;;;;;;;10.25;4.40;;;3.30;95.70;;;;;;5026921;28;20565;-68
2022/12/27 06:36:53;;;;;;;12.93;4.13;;;3.20;95.80;;;;;;5029163;28;20108;-69
2022/12/27 06:39:19;;;;;;;14.38;4.45;;;3.30;95.90;;;;;;5030327;28;20462;-69
2022/12/27 06:41:44;;;;;;;9.52;4.85;;;3.40;95.70;;;;;;5025177;28;20123;-68
2022/12/27 06:44:10;;;;;;;11.50;4.05;;;3.40;95.80;;;;;;5028128;28;20104;-69
2022/12/27 06:46:36;;;;;;;11.07;4.80;;;3.40;95.50;;;;;;5025189;28;20029;-71
2022/12/27 06:49:02;;;;;;;12.95;5.20;;;3.50;95.60;;;;;;5032033;28;20033;-68
2022/12/27 06:51:28;;;;;;;11.93;5.68;;;3.40;95.70;;;;;;5025634;28;20156;-70
2022/12/27 06:53:53;;;;;;;9.10;5.07;;;3.40;95.60;;;;;;5032823;28;20474;-70
2022/12/27 06:56:20;;;;;;;14.07;5.88;;;3.40;95.60;;;;;;5030023;28;20033;-68
2022/12/27 06:58:48;;;;;;;16.45;4.93;;;3.40;95.70;;;;;;5030736;28;20041;-68
2022/12/27 07:01:19;;;;;;;11.00;5.22;;;3.40;95.70;;;;;;5029379;28;20095;-68
2022/12/27 07:04:02;;;;;;;12.80;5.72;;;3.50;95.60;;;;;;5025149;28;20060;-68
2022/12/27 07:06:30;;;;;;;13.35;6.00;;;3.40;95.70;;;;;;5029497;28;20040;-68
2022/12/27 07:08:56;;;;;;;13.65;5.28;;;3.50;95.50;;;;;;5025108;28;20370;-69
2022/12/27 07:11:23;;;;;;;14.18;6.43;;;3.50;95.40;;;;;;5028983;28;20036;-68
2022/12/27 07:13:51;;;;;;;13.82;5.38;;;3.50;95.40;;;;;;5028133;28;20105;-67
2022/12/27 07:16:19;;;;;;;11.82;5.43;;;3.50;95.50;;;;;;5030192;28;20084;-67
2022/12/27 07:18:45;;;;;;;11.23;5.28;;;3.50;95.50;;;;;;5023650;28;20492;-72
2022/12/27 07:21:14;;;;;;;11.00;5.25;;;3.40;95.50;;;;;;5023556;28;20042;-67
2022/12/27 07:23:40;;;;;;;13.75;5.15;;;3.50;95.40;;;;;;5024675;28;20837;-76
2022/12/27 07:26:08;;;;;;;8.15;5.15;;;3.50;95.10;;;;;;5020619;28;20029;-68
2022/12/27 07:28:34;;;;;;;18.77;5.18;;;3.40;94.90;;;;;;5027632;28;20040;-70
2022/12/27 07:31:04;;;;;;;10.18;4.68;;;3.40;95.00;;;;;;5027059;28;20037;-69
2022/12/27 07:33:29;;;;;;;9.95;4.63;;;3.40;95.30;;;;;;5028206;28;20049;-72
2022/12/27 07:35:59;;;;;;;14.60;5.25;;;3.40;95.30;;;;;;5020345;28;20037;-72
2022/12/27 07:38:25;;;;;;;14.70;5.47;;;3.30;95.30;;;;;;5019828;28;20462;-70
2022/12/27 07:40:50;;;;;;;11.15;5.00;;;3.20;95.60;;;;;;5028018;28;20041;-70
2022/12/27 07:43:16;;;;;;;17.33;5.30;;;3.20;95.90;;;;;;5031355;28;20112;-71
2022/12/27 07:45:41;;;;;;;12.20;5.30;;;3.20;95.70;;;;;;5026033;28;20026;-72
2022/12/27 07:48:07;;;;;;;10.85;4.50;;;3.20;95.70;;;;;;5029199;28;20034;-73
2022/12/27 07:50:32;;;;;;;16.83;5.30;;;3.20;95.70;;;;;;5028380;28;20373;-72
2022/12/27 07:52:58;;;;;;;11.65;5.20;;;3.30;95.80;;;;;;5025455;28;20038;-71
2022/12/27 07:55:23;;;;;;;11.82;4.30;;;3.40;95.70;;;;;;5020388;28;20427;-71
2022/12/27 07:57:49;;;;;;;12.73;5.72;;;3.40;95.80;;;;;;5027394;28;20032;-71
2022/12/27 08:00:14;;;;;;;13.50;4.80;;;3.40;95.90;;;;;;5021127;28;20033;-76
2022/12/27 08:02:42;;;;;;;13.32;4.88;;;3.40;95.80;;;;;;5029878;28;20116;-73
2022/12/27 08:05:08;;;;;;;7.28;3.72;;;3.40;95.80;;;;;;5022896;28;20044;-73
2022/12/27 08:07:35;;;;;;;11.25;4.85;;;3.40;95.60;;;;;;5028013;28;20037;-72
2022/12/27 08:10:00;;;;;;;11.68;4.85;;;3.30;95.80;;;;;;5028156;28;20087;-74
2022/12/27 08:12:26;;;;;;;10.55;5.43;;;3.20;96.10;;;;;;5023814;28;20029;-71
2022/12/27 08:14:51;;;;;;;8.35;4.68;;;3.20;96.60;;;;;;5028261;28;20032;-70
2022/12/27 08:17:19;;;;;;;13.70;5.20;;;3.20;97.00;;;;;;5027810;28;20061;-70
2022/12/27 08:19:46;;;;;;;14.77;5.60;;;3.10;97.10;;;;;;5024280;28;20095;-70
2022/12/27 08:22:11;;;;;;;9.82;4.90;;;3.10;96.90;;;;;;5029384;28;20140;-68
2022/12/27 08:24:39;;;;;;;16.98;4.88;;;3.10;96.80;;;;;;5022031;28;20101;-68
2022/12/27 08:27:05;;;;;;;10.90;4.85;;;3.20;96.80;;;;;;5025813;28;20541;-68
2022/12/27 08:29:31;;;;;;;8.52;3.90;;;3.10;96.80;;;;;;5032342;28;20104;-68
2022/12/27 08:31:56;;;;;;;12.75;4.65;;;3.10;97.10;;;;;;5032100;28;20174;-68
2022/12/27 08:34:22;;;;;;;10.00;4.03;;;3.10;97.10;;;;;;5032936;28;20033;-67
2022/12/27 08:36:50;;;;;;;12.27;4.28;;;3.10;97.20;;;;;;5036580;28;20104;-68
2022/12/27 08:39:15;;;;;;;10.68;3.88;;;3.10;97.10;;;;;;5037738;28;20075;-68
2022/12/27 08:41:41;;;;;;;12.02;3.72;;;3.20;97.00;;;;;;5038356;28;20034;-68
2022/12/27 08:44:08;;;;;;;16.15;3.97;;;3.20;96.90;;;;;;5034042;28;20032;-70
2022/12/27 08:46:34;;;;;;;8.68;3.55;;;3.20;96.70;;;;;;5033814;28;20363;-68
2022/12/27 08:48:59;;;;;;;9.75;3.83;;;3.20;96.80;;;;;;5035723;28;20037;-69
2022/12/27 08:51:25;;;;;;;11.35;4.18;;;3.30;96.70;;;;;;5036191;28;20033;-68
2022/12/27 08:53:50;;;;;;;10.55;3.35;;;3.30;96.80;;;;;;5036703;28;20025;-68
2022/12/27 08:56:16;;;;;;;12.32;3.88;;;3.30;96.70;;;;;;5037952;28;20473;-69
2022/12/27 08:58:41;;;;;;;8.25;3.78;;;3.30;96.70;;;;;;5036964;28;20036;-68
2022/12/27 09:01:08;;;;;;;11.32;3.67;;;3.30;96.70;;;;;;5031883;28;20033;-69
2022/12/27 09:03:34;;;;;;;8.95;3.90;;;3.30;96.70;;;;;;5035022;28;20047;-68
2022/12/27 09:06:17;;;;;;;11.73;3.83;;;3.40;96.40;;;;;;5034938;28;20041;-69
2022/12/27 09:08:44;;;;;;;7.22;3.58;;;3.30;96.30;;;;;;5033329;28;20072;-68
2022/12/27 09:11:15;;;;;;;10.23;3.78;;;3.30;96.40;;;;;;5036087;28;20512;-69
2022/12/27 09:13:41;;;;;;;12.48;3.83;;;3.20;96.60;;;;;;5035652;28;20539;-80
2022/12/27 09:16:09;;;;;;;9.98;3.38;;;3.20;96.70;;;;;;5024396;28;20042;-69
2022/12/27 09:18:39;;;;;;;9.30;3.38;;;3.40;96.30;;;;;;5043156;28;20029;-69
2022/12/27 09:21:07;;;;;;;12.13;4.18;;;3.40;96.50;;;;;;5026135;28;20033;-68
2022/12/27 09:23:33;;;;;;;12.77;3.97;;;3.40;96.40;;;;;;5032957;28;20458;-68
2022/12/27 09:26:07;;;;;;;11.75;3.95;;;3.40;96.50;;;;;;5036026;28;20044;-68
2022/12/27 09:28:33;;;;;;;13.98;4.05;;;3.40;96.40;;;;;;5036910;28;20037;-68
2022/12/27 09:30:59;;;;;;;9.20;3.92;;;3.50;96.40;;;;;;5033304;28;20026;-69
2022/12/27 09:33:25;;;;;;;11.25;3.50;;;3.50;96.30;;;;;;5034811;28;20037;-67
2022/12/27 09:35:50;;;;;;;10.07;3.53;;;3.50;96.20;;;;;;5033779;28;20481;-69
2022/12/27 09:38:17;;;;;;;9.30;3.85;;;3.60;96.10;;;;;;5036543;28;20033;-69
2022/12/27 09:40:58;;;;;;;11.88;3.65;;;3.60;96.00;;;;;;5033320;28;20022;-70
2022/12/27 09:43:41;;;;;;;9.23;3.15;;;3.60;95.80;;;;;;5033541;28;20030;-69
2022/12/27 09:46:14;;;;;;;11.18;3.50;;;3.70;95.60;;;;;;5025344;28;20033;-69
2022/12/27 09:48:40;;;;;;;12.15;3.78;;;3.80;95.50;;;;;;5031402;28;20087;-69
2022/12/27 09:51:21;;;;;;;9.38;3.38;;;3.80;95.50;;;;;;5022876;28;20124;-69
2022/12/27 09:54:00;;;;;;;6.90;2.83;;;3.90;95.00;;;;;;5020221;28;20029;-73
2022/12/27 09:56:31;;;;;;;8.25;3.53;;;4.00;94.40;;;;;;5027438;28;20479;-69
2022/12/27 09:59:12;;;;;;;8.45;3.05;;;4.10;94.30;;;;;;5029082;28;20037;-69
2022/12/27 10:01:41;;;;;;;11.38;3.65;;;4.10;94.20;;;;;;5027928;28;20029;-72
2022/12/27 10:04:12;;;;;;;8.80;3.38;;;4.10;94.20;;;;;;5025594;28;20060;-74
2022/12/27 10:06:48;;;;;;;10.27;3.35;;;4.20;94.00;;;;;;5029425;28;20033;-70
2022/12/27 10:09:43;;;;;;;10.38;3.35;;;4.20;93.90;;;;;;5028169;28;20070;-67
2022/12/27 10:12:40;;;;;;;11.55;3.17;;;4.30;93.70;;;;;;5030092;28;20033;-68
2022/12/27 10:15:05;;;;;;;9.38;2.83;;;4.30;93.50;;;;;;5024602;28;20033;-68
2022/12/27 10:17:58;;;;;;;9.48;3.65;;;4.30;93.40;;;;;;5031688;28;20585;-68
2022/12/27 10:20:50;;;;;;;13.18;3.33;;;4.40;93.60;;;;;;5023036;28;20112;-69
2022/12/27 10:23:19;;;;;;;12.93;3.53;;;4.50;92.90;;;;;;5031321;28;20362;-66
2022/12/27 10:25:46;;;;;;;11.95;3.13;;;4.50;92.80;;;;;;5033537;28;20041;-67
2022/12/27 10:28:21;;;;;;;14.35;3.20;;;4.50;92.80;;;;;;5025689;28;20549;-70
2022/12/27 10:30:47;;;;;;;9.13;3.00;;;4.50;93.00;;;;;;5020464;28;20054;-68
2022/12/27 10:33:25;;;;;;;10.82;3.58;;;4.40;92.90;;;;;;5028385;28;20071;-68
2022/12/27 10:35:50;;;;;;;9.15;3.10;;;4.60;93.10;;;;;;5023975;28;20030;-65
2022/12/27 10:38:16;;;;;;;10.00;3.55;;;4.60;92.90;;;;;;5030089;28;20052;-68
2022/12/27 10:41:04;;;;;;;9.23;3.45;;;4.70;92.40;;;;;;5032810;28;20544;-69
2022/12/27 10:43:38;;;;;;;6.82;2.50;;;4.80;92.20;;;;;;5029401;28;20025;-68
2022/12/27 10:46:16;;;;;;;9.57;2.80;;;4.90;91.80;;;;;;5024542;28;20402;-69
2022/12/27 10:48:59;;;;;;;9.25;3.08;;;4.90;91.60;;;;;;5030440;28;20041;-69
2022/12/27 10:51:36;;;;;;;9.02;2.65;;;4.90;91.90;;;;;;5020528;28;20033;-68
2022/12/27 10:54:11;;;;;;;5.65;2.25;;;4.90;91.50;;;;;;5030810;28;20035;-69
2022/12/27 10:56:40;;;;;;;9.35;2.85;;;4.90;91.40;;;;;;5031000;28;20477;-83
2022/12/27 10:59:27;;;;;;;7.07;3.25;;;5.00;91.50;;;;;;5028584;28;20458;-69
2022/12/27 11:02:01;;;;;;;7.03;2.67;;;5.00;91.60;;;;;;5025293;28;20122;-69
2022/12/27 11:04:29;;;;;;;9.25;2.92;;;4.90;91.60;;;;;;5022429;28;20117;-68
2022/12/27 11:07:03;;;;;;;7.50;2.67;;;4.90;91.60;;;;;;5027699;28;20028;-73
2022/12/27 11:09:36;;;;;;;9.05;2.67;;;4.80;91.90;;;;;;5022113;28;20385;-68
2022/12/27 11:12:14;;;;;;;7.95;3.00;;;4.90;91.60;;;;;;5027978;28;20059;-69
2022/12/27 11:14:55;;;;;;;8.57;2.65;;;4.90;91.50;;;;;;5028973;28;20025;-70
2022/12/27 11:17:34;;;;;;;11.00;3.38;;;5.00;91.60;;;;;;5029688;28;20453;-72
2022/12/27 11:20:18;;;;;;;7.97;2.95;;;5.10;91.40;;;;;;5021865;28;20037;-73
2022/12/27 11:22:47;;;;;;;8.60;2.95;;;5.20;91.40;;;;;;5028872;28;20444;-74
2022/12/27 11:25:14;;;;;;;13.25;3.17;;;5.20;91.00;;;;;;5021455;28;20095;-73
2022/12/27 11:27:45;;;;;;;8.90;2.97;;;5.10;91.30;;;;;;5028784;28;20063;-68
2022/12/27 11:30:37;;;;;;;10.27;2.80;;;5.30;90.50;;;;;;5024095;28;20132;-70
2022/12/27 11:33:13;;;;;;;12.48;2.85;;;5.40;90.00;;;;;;5025411;28;20535;-69
2022/12/27 11:35:49;;;;;;;10.60;2.95;;;5.40;90.20;;;;;;5027451;28;20025;-70
2022/12/27 11:38:28;;;;;;;11.82;2.90;;;5.40;90.50;;;;;;5025689;28;20524;-71
2022/12/27 11:41:27;;;;;;;10.02;2.80;;;5.50;90.60;;;;;;5026629;28;20029;-72
2022/12/27 11:44:12;;;;;;;10.48;3.00;;;5.40;90.20;;;;;;5022719;28;20044;-71
2022/12/27 11:47:09;;;;;;;9.70;2.50;;;5.60;90.20;;;;;;5027054;28;20029;-71
2022/12/27 11:49:39;;;;;;;8.00;3.15;;;5.50;89.50;;;;;;5018311;28;20501;-70
2022/12/27 11:52:23;;;;;;;11.95;3.35;;;5.60;90.20;;;;;;5028091;28;20482;-70
2022/12/27 11:55:25;;;;;;;10.77;2.67;;;5.80;89.90;;;;;;5022503;28;20077;-69
2022/12/27 11:57:54;;;;;;;7.93;2.55;;;5.60;90.00;;;;;;5020683;28;20040;-69
2022/12/27 12:00:22;;;;;;;7.32;3.25;;;5.50;89.90;;;;;;5023989;28;20112;-70
2022/12/27 12:02:57;;;;;;;9.00;2.50;;;5.70;89.50;;;;;;5028974;28;20061;-70
2022/12/27 12:05:57;;;;;;;13.05;3.28;;;5.80;89.50;;;;;;5026654;28;20045;-69
2022/12/27 12:08:50;;;;;;;6.78;2.80;;;6.00;89.20;;;;;;5028645;28;20404;-70
2022/12/27 12:11:54;;;;;;;13.00;2.75;;;5.80;89.10;;;;;;5019985;28;20034;-73
2022/12/27 12:14:37;;;;;;;11.13;2.72;;;6.00;89.00;;;;;;5023196;28;20033;-71
2022/12/27 12:17:13;;;;;;;11.00;2.75;;;5.90;88.40;;;;;;5018089;28;20057;-69
2022/12/27 12:20:10;;;;;;;9.90;2.80;;;6.00;88.80;;;;;;5023256;28;20026;-70
2022/12/27 12:23:00;;;;;;;6.75;2.60;;;5.80;88.80;;;;;;5026181;28;20045;-74
2022/12/27 12:25:51;;;;;;;6.50;2.53;;;5.80;88.90;;;;;;5031096;28;20358;-73
2022/12/27 12:28:35;;;;;;;10.13;2.78;;;5.80;89.20;;;;;;5015245;28;20054;-74
2022/12/27 12:31:34;;;;;;;9.57;2.95;;;5.60;89.40;;;;;;5025857;28;20037;-74
2022/12/27 12:34:24;;;;;;;11.65;2.90;;;5.50;89.60;;;;;;5022231;28;20072;-72
2022/12/27 12:37:35;;;;;;;6.63;2.83;;;5.40;90.20;;;;;;5017384;28;20084;-71
2022/12/27 12:40:23;;;;;;;10.35;2.90;;;5.40;89.90;;;;;;5025760;28;20598;-69
2022/12/27 12:43:04;;;;;;;7.03;2.75;;;5.30;90.40;;;;;;5029456;28;20034;-71
2022/12/27 12:45:48;;;;;;;9.23;2.88;;;5.40;90.30;;;;;;5013233;28;20088;-71
2022/12/27 12:48:26;;;;;;;9.05;2.80;;;5.40;90.40;;;;;;5022358;28;20047;-69
2022/12/27 12:51:10;;;;;;;14.52;2.92;;;5.30;90.20;;;;;;5025959;28;20107;-70
2022/12/27 12:54:04;;;;;;;8.82;2.63;;;5.20;90.50;;;;;;5018278;28;20470;-73
2022/12/27 12:56:51;;;;;;;8.85;3.25;;;5.20;90.60;;;;;;5017837;28;20362;-74
2022/12/27 12:59:48;;;;;;;10.45;3.20;;;5.10;90.90;;;;;;5019666;28;20454;-73
2022/12/27 13:02:35;;;;;;;11.70;3.08;;;5.10;91.00;;;;;;5022662;28;20429;-69
2022/12/27 13:05:10;;;;;;;10.60;3.50;;;5.10;91.00;;;;;;5020233;28;20033;-73
2022/12/27 13:07:43;;;;;;;11.25;3.50;;;5.10;91.10;;;;;;5019231;28;20029;-69
2022/12/27 13:10:27;;;;;;;7.47;3.17;;;5.00;91.00;;;;;;5024843;28;20044;-72
2022/12/27 13:13:02;;;;;;;9.75;3.25;;;5.10;91.10;;;;;;5023331;28;20437;-71
2022/12/27 13:15:27;;;;;;;10.88;3.33;;;5.10;91.20;;;;;;5018002;28;20034;-71
2022/12/27 13:18:11;;;;;;;9.43;2.83;;;5.10;91.30;;;;;;5027166;28;21742;-71
2022/12/27 13:20:48;;;;;;;8.93;2.88;;;5.00;91.10;;;;;;5030416;28;20030;-72
2022/12/27 13:23:38;;;;;;;10.82;3.15;;;5.00;91.10;;;;;;5027959;28;20052;-70
2022/12/27 13:26:35;;;;;;;7.50;2.40;;;5.00;91.20;;;;;;5023478;28;20120;-71
2022/12/27 13:29:21;;;;;;;11.55;2.83;;;5.00;91.10;;;;;;5031357;28;20037;-69
2022/12/27 13:31:56;;;;;;;9.30;2.67;;;5.00;91.20;;;;;;5022300;28;20038;-75
2022/12/27 13:34:55;;;;;;;9.90;3.10;;;4.90;91.40;;;;;;5021887;28;20021;-71
2022/12/27 13:37:33;;;;;;;7.75;2.63;;;4.90;91.40;;;;;;5028018;28;20056;-74
2022/12/27 13:40:27;;;;;;;10.07;2.92;;;4.90;91.70;;;;;;5028525;28;20033;-68
2022/12/27 13:43:11;;;;;;;9.93;2.53;;;4.80;91.70;;;;;;5026727;28;20029;-69
2022/12/27 13:45:58;;;;;;;8.20;3.08;;;4.80;91.50;;;;;;5027527;28;20034;-67
2022/12/27 13:48:35;;;;;;;9.45;3.72;;;4.80;91.90;;;;;;5023264;28;20037;-67
2022/12/27 13:51:09;;;;;;;12.57;2.95;;;4.70;92.00;;;;;;5023559;28;20112;-70
2022/12/27 13:53:49;;;;;;;10.75;3.28;;;4.70;92.20;;;;;;5023867;28;20025;-72
2022/12/27 13:56:28;;;;;;;10.20;3.20;;;4.60;92.20;;;;;;5028833;28;20124;-71
2022/12/27 13:59:30;;;;;;;17.80;3.47;;;4.60;92.50;;;;;;5030803;28;20387;-74
2022/12/27 14:02:17;;;;;;;10.43;3.65;;;4.60;92.60;;;;;;5026747;28;20394;-73
2022/12/27 14:04:59;;;;;;;11.13;3.33;;;4.60;92.70;;;;;;5024484;28;20141;-71
2022/12/27 14:07:37;;;;;;;13.38;3.50;;;4.50;93.00;;;;;;5022413;28;20033;-72
2022/12/27 14:10:24;;;;;;;17.77;3.65;;;4.40;93.30;;;;;;5029205;28;20075;-71
2022/12/27 14:12:57;;;;;;;19.05;3.85;;;4.40;93.30;;;;;;5026139;28;20044;-73
2022/12/27 14:15:58;;;;;;;11.48;3.40;;;4.30;93.60;;;;;;5030895;28;20047;-72
2022/12/27 14:18:42;;;;;;;;;;;4.30;93.70;;;;;;5027869;28;20033;-70
2022/12/27 14:21:37;;;;;;;7.63;3.13;;;4.30;93.80;;;;;;5031220;28;19913;-71
2022/12/27 14:24:41;;;;;;;15.45;3.78;;;4.30;93.80;;;;;;5021971;28;20151;-70
2022/12/27 14:27:41;;;;;;;10.18;4.25;;;4.20;93.90;;;;;;5028847;28;20052;-69
2022/12/27 14:30:37;;;;;;;17.17;4.30;;;4.20;93.90;;;;;;5030614;28;20069;-70
2022/12/27 14:33:50;;;;;;;13.68;3.90;;;4.10;94.00;;;;;;5028417;28;20037;-71
2022/12/27 14:36:35;;;;;;;9.95;3.72;;;4.10;94.30;;;;;;5028892;28;20037;-70
2022/12/27 14:39:22;;;;;;;13.88;4.07;;;4.10;94.20;;;;;;5024259;28;20041;-68
2022/12/27 14:42:08;;;;;;;10.15;3.75;;;4.10;94.30;;;;;;5021418;28;20025;-70
2022/12/27 14:45:23;;;;;;;9.63;4.00;;;4.10;94.30;;;;;;5029970;28;20068;-71
2022/12/27 14:48:27;;;;;;;10.20;4.45;;;4.10;94.50;;;;;;5020571;28;20053;-71
2022/12/27 14:51:26;;;;;;;10.18;4.18;;;4.10;94.50;;;;;;5025097;28;20026;-69
2022/12/27 14:54:00;;;;;;;13.90;4.30;;;4.10;94.60;;;;;;5025958;28;20592;-69
2022/12/27 14:56:58;;;;;;;12.65;4.85;;;4.10;94.70;;;;;;5032153;28;20473;-69
2022/12/27 14:59:56;;;;;;;15.60;4.35;;;4.00;94.70;;;;;;5031110;28;20029;-69
2022/12/27 15:02:32;;;;;;;10.43;3.95;;;4.10;94.80;;;;;;5027630;28;20061;-69
2022/12/27 15:05:30;;;;;;;11.27;4.18;;;4.00;94.90;;;;;;5027862;28;20462;-69
2022/12/27 15:08:06;;;;;;;14.43;4.65;;;4.10;95.00;;;;;;5021435;28;20049;-70